Time;durP1;ratioP1;P1;durP2;ratioP2;P2;SDS_P1;SDS_P2;PMS_P1;PMS_P2;Temp;Humidity;BMP_temperature;BMP_pressure;BME280_temperature;BME280_humidity;BME280_pressure;Samples;Min_cycle;Max_cycle;Signal;HPM_P1;HPM_P2
2022/12/04 00:02:22;;;;;;;76.45;36.78;;;;;;;;;;5068299;28;20405;-81
2022/12/04 00:04:49;;;;;;;78.15;31.55;;;;;;;;;;5068971;28;20526;-81
2022/12/04 00:07:17;;;;;;;67.40;29.80;;;;;;;;;;5069505;28;20049;-81
2022/12/04 00:09:44;;;;;;;66.30;28.95;;;;;;;;;;5070366;28;20048;-81
2022/12/04 00:12:11;;;;;;;69.15;28.58;;;;;;;;;;5075729;28;20049;-82
2022/12/04 00:14:38;;;;;;;68.88;28.60;;;;;;;;;;5074364;28;20499;-81
2022/12/04 00:17:26;;;;;;;64.95;28.48;;;;;;;;;;5075234;28;20439;-81
2022/12/04 00:19:53;;;;;;;68.93;30.00;;;;;;;;;;5070674;28;20065;-81
2022/12/04 00:22:20;;;;;;;64.05;27.98;;;;;;;;;;5072138;28;20041;-81
2022/12/04 00:24:48;;;;;;;65.95;29.35;;;;;;;;;;5069991;28;20483;-81
2022/12/04 00:27:15;;;;;;;70.18;29.35;;;;;;;;;;5071726;28;20135;-81
2022/12/04 00:29:42;;;;;;;73.35;29.20;;;;;;;;;;5071755;28;20051;-81
2022/12/04 00:32:09;;;;;;;68.55;28.98;;;;;;;;;;5069543;28;20056;-81
2022/12/04 00:34:37;;;;;;;66.60;29.52;;;;;;;;;;5069686;28;20616;-81
2022/12/04 00:37:04;;;;;;;63.95;28.15;;;;;;;;;;5069878;28;20102;-81
2022/12/04 00:39:31;;;;;;;71.22;28.60;;;;;;;;;;5069473;28;20051;-81
2022/12/04 00:41:58;;;;;;;67.72;29.27;;;;;;;;;;5069504;28;20059;-81
2022/12/04 00:44:26;;;;;;;66.20;28.13;;;;;;;;;;5068656;28;20041;-81
2022/12/04 00:46:53;;;;;;;70.25;28.95;;;;;;;;;;5070145;28;20414;-81
2022/12/04 00:49:20;;;;;;;65.85;29.25;;;;;;;;;;5068640;28;20139;-81
2022/12/04 00:51:47;;;;;;;65.63;28.52;;;;;;;;;;5068322;28;20087;-81
2022/12/04 00:54:14;;;;;;;63.78;27.58;;;;;;;;;;5068645;28;20051;-81
2022/12/04 00:56:42;;;;;;;70.32;28.60;;;;;;;;;;5068410;28;20075;-81
2022/12/04 00:59:10;;;;;;;67.25;27.95;;;;;;;;;;5067932;28;20053;-81
2022/12/04 01:01:37;;;;;;;63.53;28.23;;;;;;;;;;5067734;28;20499;-81
2022/12/04 01:04:04;;;;;;;71.03;29.50;;;;;;;;;;5069157;28;20048;-81
2022/12/04 01:06:33;;;;;;;81.18;30.90;;;;;;;;;;5067881;28;20418;-81
2022/12/04 01:09:01;;;;;;;73.20;31.00;;;;;;;;;;5069253;28;20068;-80
2022/12/04 01:11:29;;;;;;;69.53;29.67;;;;;;;;;;5054062;28;20075;-81
2022/12/04 01:13:56;;;;;;;74.78;31.25;;;;;;;;;;5054728;28;20048;-80
2022/12/04 01:16:25;;;;;;;70.25;30.23;;;;;;;;;;5056788;28;20486;-81
2022/12/04 01:18:53;;;;;;;70.78;30.45;;;;;;;;;;5057255;28;20045;-81
2022/12/04 01:21:20;;;;;;;74.97;32.28;;;;;;;;;;5055960;28;20157;-81
2022/12/04 01:23:47;;;;;;;72.50;30.60;;;;;;;;;;5056007;28;20053;-81
2022/12/04 01:26:15;;;;;;;74.63;29.00;;;;;;;;;;5055995;28;20051;-81
2022/12/04 01:28:42;;;;;;;67.40;28.70;;;;;;;;;;5055292;28;20061;-81
2022/12/04 01:31:11;;;;;;;69.22;28.85;;;;;;;;;;5055619;28;20053;-81
2022/12/04 01:33:39;;;;;;;66.03;28.55;;;;;;;;;;5056604;28;20132;-81
2022/12/04 01:36:08;;;;;;;73.63;29.38;;;;;;;;;;5055185;28;20048;-81
2022/12/04 01:38:36;;;;;;;67.97;28.60;;;;;;;;;;5054958;28;20055;-81
2022/12/04 01:41:03;;;;;;;66.90;29.30;;;;;;;;;;5054329;28;20068;-81
2022/12/04 01:43:31;;;;;;;66.47;28.95;;;;;;;;;;5054687;28;20045;-81
2022/12/04 01:46:00;;;;;;;65.53;28.25;;;;;;;;;;5054402;28;20048;-81
2022/12/04 01:48:31;;;;;;;68.15;27.73;;;;;;;;;;5054116;28;20045;-81
2022/12/04 01:51:02;;;;;;;69.40;30.17;;;;;;;;;;5056668;28;20575;-81
2022/12/04 01:53:30;;;;;;;70.47;29.27;;;;;;;;;;5056094;28;20048;-81
2022/12/04 01:55:57;;;;;;;72.88;30.33;;;;;;;;;;5055539;28;20064;-81
2022/12/04 01:58:28;;;;;;;69.47;29.27;;;;;;;;;;5055597;28;20512;-81
2022/12/04 02:00:56;;;;;;;66.57;27.98;;;;;;;;;;5056990;28;20052;-81
2022/12/04 02:03:25;;;;;;;74.05;31.08;;;;;;;;;;5055857;28;20487;-82
2022/12/04 02:05:52;;;;;;;69.03;30.35;;;;;;;;;;5056937;28;20071;-81
2022/12/04 02:08:20;;;;;;;68.47;29.35;;;;;;;;;;5055431;28;20045;-81
2022/12/04 02:10:54;;;;;;;65.43;27.80;;;;;;;;;;5055180;28;20056;-81
2022/12/04 02:13:33;;;;;;;75.35;29.77;;;;;;;;;;5056373;28;20102;-81
2022/12/04 02:16:08;;;;;;;72.30;29.05;;;;;;;;;;5055328;28;20105;-81
2022/12/04 02:18:43;;;;;;;65.68;29.30;;;;;;;;;;5055353;28;20055;-82
2022/12/04 02:21:36;;;;;;;72.43;32.22;;;;;;;;;;5053235;28;20041;-81
2022/12/04 02:24:07;;;;;;;73.40;30.90;;;;;;;;;;5051721;28;20045;-81
2022/12/04 02:26:34;;;;;;;77.80;31.13;;;;;;;;;;5053448;28;20045;-80
2022/12/04 02:29:14;;;;;;;73.07;30.52;;;;;;;;;;5053172;28;20049;-80
2022/12/04 02:31:51;;;;;;;67.93;30.40;;;;;;;;;;5054211;28;20151;-81
2022/12/04 02:34:23;;;;;;;69.63;30.10;;;;;;;;;;5053130;28;20058;-81
2022/12/04 02:36:53;;;;;;;72.32;29.52;;;;;;;;;;5052842;28;20051;-81
2022/12/04 02:39:32;;;;;;;68.65;28.98;;;;;;;;;;5052460;28;20488;-80
2022/12/04 02:42:13;;;;;;;70.97;30.30;;;;;;;;;;5054166;28;20045;-81
2022/12/04 02:44:47;;;;;;;72.55;30.63;;;;;;;;;;5052324;28;20045;-80
2022/12/04 02:47:16;;;;;;;69.85;29.42;;;;;;;;;;5053889;28;20047;-81
2022/12/04 02:49:49;;;;;;;69.65;30.98;;;;;;;;;;5052170;28;20148;-81
2022/12/04 02:52:20;;;;;;;71.60;31.05;;;;;;;;;;5052723;28;20053;-81
2022/12/04 02:54:51;;;;;;;66.63;28.65;;;;;;;;;;5052430;28;20048;-81
2022/12/04 02:57:24;;;;;;;63.30;28.92;;;;;;;;;;5052213;28;20530;-81
2022/12/04 02:59:52;;;;;;;71.07;31.38;;;;;;;;;;5052902;28;20106;-80
2022/12/04 03:02:26;;;;;;;70.20;28.75;;;;;;;;;;5051932;28;20045;-80
2022/12/04 03:04:54;;;;;;;71.28;31.00;;;;;;;;;;5053429;28;20041;-80
2022/12/04 03:07:30;;;;;;;64.50;28.88;;;;;;;;;;5051926;28;20053;-80
2022/12/04 03:09:59;;;;;;;67.93;28.40;;;;;;;;;;5051907;28;20049;-80
2022/12/04 03:12:35;;;;;;;67.70;30.05;;;;;;;;;;5053193;28;20055;-80
2022/12/04 03:15:05;;;;;;;73.72;30.85;;;;;;;;;;5051749;28;20049;-81
2022/12/04 03:17:34;;;;;;;68.63;30.48;;;;;;;;;;5053065;28;20526;-81
2022/12/04 03:20:05;;;;;;;63.90;30.02;;;;;;;;;;5052734;28;20049;-81
2022/12/04 03:22:33;;;;;;;69.75;31.23;;;;;;;;;;5053650;28;20045;-81
2022/12/04 03:25:02;;;;;;;67.25;28.42;;;;;;;;;;5056087;28;20075;-81
2022/12/04 03:27:47;;;;;;;66.68;31.33;;;;;;;;;;5055223;28;20053;-82
2022/12/04 03:30:20;;;;;;;72.68;30.45;;;;;;;;;;5055099;28;20055;-82
2022/12/04 03:33:06;;;;;;;74.00;31.92;;;;;;;;;;5055144;28;20084;-81
2022/12/04 03:35:40;;;;;;;63.40;30.05;;;;;;;;;;5055496;28;20053;-82
2022/12/04 03:38:20;;;;;;;70.70;29.90;;;;;;;;;;5054179;28;20049;-82
2022/12/04 03:40:55;;;;;;;67.50;29.38;;;;;;;;;;5053792;28;20051;-82
2022/12/04 03:43:26;;;;;;;76.75;30.15;;;;;;;;;;5053709;28;20131;-81
2022/12/04 03:45:58;;;;;;;72.47;31.10;;;;;;;;;;5053380;28;20049;-80
2022/12/04 03:48:28;;;;;;;65.60;30.02;;;;;;;;;;5055311;28;20068;-81
2022/12/04 03:51:03;;;;;;;67.78;29.60;;;;;;;;;;5052841;28;20053;-81
2022/12/04 03:53:33;;;;;;;69.95;30.20;;;;;;;;;;5054295;28;20144;-82
2022/12/04 03:56:00;;;;;;;70.40;31.30;;;;;;;;;;5053058;28;20400;-81
2022/12/04 03:58:32;;;;;;;68.35;31.02;;;;;;;;;;5052090;28;20140;-81
2022/12/04 04:01:02;;;;;;;66.18;29.95;;;;;;;;;;5054438;28;20484;-81
2022/12/04 04:03:33;;;;;;;72.25;30.52;;;;;;;;;;5054205;28;20515;-81
2022/12/04 04:06:03;;;;;;;74.65;30.67;;;;;;;;;;5053916;28;20495;-81
2022/12/04 04:08:34;;;;;;;73.03;32.13;;;;;;;;;;5053845;28;20535;-80
2022/12/04 04:11:13;;;;;;;73.22;30.63;;;;;;;;;;5053388;28;20413;-81
2022/12/04 04:24:57;;;;;;;66.85;29.52;;;;;;;;;;5052241;28;20049;-84
2022/12/04 04:27:24;;;;;;;72.32;30.75;;;;;;;;;;5034641;28;20052;-84
2022/12/04 04:29:51;;;;;;;70.07;31.17;;;;;;;;;;5034592;28;20049;-83
2022/12/04 04:32:22;;;;;;;61.60;29.02;;;;;;;;;;5052226;28;20045;-84
2022/12/04 04:34:53;;;;;;;68.35;29.00;;;;;;;;;;5034513;28;20052;-83
2022/12/04 04:37:26;;;;;;;66.78;29.95;;;;;;;;;;5034721;28;20127;-84
2022/12/04 04:39:53;;;;;;;;;;;;;;;;;;5052450;28;20417;-84
2022/12/04 04:42:26;;;;;;;63.85;29.50;;;;;;;;;;5034425;28;19927;-84
2022/12/04 04:45:02;;;;;;;68.27;29.47;;;;;;;;;;5052812;28;20056;-84
2022/12/04 04:47:38;;;;;;;74.15;29.83;;;;;;;;;;5038259;28;20783;-85
2022/12/04 04:50:07;;;;;;;80.40;32.40;;;;;;;;;;5056429;28;20049;-83
2022/12/04 04:52:39;;;;;;;73.32;29.27;;;;;;;;;;5055449;28;20057;-84
2022/12/04 04:55:06;;;;;;;70.70;29.02;;;;;;;;;;5038174;28;20544;-84
2022/12/04 04:57:35;;;;;;;69.03;29.40;;;;;;;;;;5037891;28;20049;-83
2022/12/04 05:00:10;;;;;;;75.15;31.20;;;;;;;;;;5055526;28;20156;-84
2022/12/04 05:02:38;;;;;;;75.75;31.73;;;;;;;;;;5037896;28;20072;-84
2022/12/04 05:05:05;;;;;;;74.55;30.92;;;;;;;;;;5055595;28;20060;-84
2022/12/04 05:07:33;;;;;;;75.70;30.98;;;;;;;;;;5038075;28;20135;-84
2022/12/04 05:10:00;;;;;;;84.45;32.60;;;;;;;;;;5037798;28;20489;-84
2022/12/04 05:12:27;;;;;;;69.45;28.67;;;;;;;;;;5037892;28;20136;-84
2022/12/04 05:14:54;;;;;;;70.25;30.85;;;;;;;;;;5037672;28;20225;-84
2022/12/04 05:17:22;;;;;;;69.00;29.73;;;;;;;;;;5037645;28;20045;-84
2022/12/04 05:19:52;;;;;;;70.93;30.13;;;;;;;;;;5055088;28;20049;-84
2022/12/04 05:22:21;;;;;;;68.53;30.35;;;;;;;;;;5034381;28;20049;-84
2022/12/04 05:24:49;;;;;;;74.47;30.92;;;;;;;;;;5034184;28;20056;-83
2022/12/04 05:27:16;;;;;;;75.43;30.70;;;;;;;;;;5035489;28;20060;-84
2022/12/04 05:29:43;;;;;;;74.28;30.52;;;;;;;;;;5034143;28;20049;-84
2022/12/04 05:32:11;;;;;;;83.30;31.38;;;;;;;;;;5035575;28;20486;-84
2022/12/04 05:34:38;;;;;;;71.47;30.35;;;;;;;;;;5033972;28;20060;-84
2022/12/04 05:37:06;;;;;;;75.45;32.05;;;;;;;;;;5034164;28;20061;-84
2022/12/04 05:39:34;;;;;;;74.20;32.20;;;;;;;;;;5035010;28;20485;-84
2022/12/04 05:42:01;;;;;;;68.22;30.08;;;;;;;;;;5034032;28;20046;-84
2022/12/04 05:44:28;;;;;;;74.85;30.73;;;;;;;;;;5035033;28;20053;-84
2022/12/04 05:46:56;;;;;;;81.78;33.63;;;;;;;;;;5033879;28;20136;-83
2022/12/04 05:49:23;;;;;;;84.18;32.88;;;;;;;;;;5033619;28;20050;-84
2022/12/04 05:51:50;;;;;;;70.57;31.13;;;;;;;;;;5033932;28;20061;-83
2022/12/04 05:54:18;;;;;;;82.88;32.47;;;;;;;;;;5033738;28;20049;-84
2022/12/04 05:56:45;;;;;;;78.75;32.20;;;;;;;;;;5033228;28;20047;-84
2022/12/04 05:59:13;;;;;;;79.10;30.30;;;;;;;;;;5033558;28;20064;-84
2022/12/04 06:01:40;;;;;;;82.95;31.63;;;;;;;;;;5033463;28;20508;-84
2022/12/04 06:04:08;;;;;;;88.07;33.53;;;;;;;;;;5033287;28;20052;-84
2022/12/04 06:06:36;;;;;;;83.65;32.65;;;;;;;;;;5033569;28;20060;-84
2022/12/04 06:09:03;;;;;;;81.43;31.58;;;;;;;;;;5033441;28;20103;-84
2022/12/04 06:11:34;;;;;;;78.47;32.40;;;;;;;;;;5033331;28;20460;-83
2022/12/04 06:14:02;;;;;;;78.43;31.17;;;;;;;;;;5033184;28;20132;-83
2022/12/04 06:16:31;;;;;;;81.15;31.77;;;;;;;;;;5033110;28;20049;-84
2022/12/04 06:18:59;;;;;;;86.00;33.50;;;;;;;;;;5034335;28;20077;-83
2022/12/04 06:21:28;;;;;;;81.60;32.38;;;;;;;;;;5032401;28;20062;-83
2022/12/04 06:23:55;;;;;;;87.20;31.77;;;;;;;;;;5034202;28;20053;-83
2022/12/04 06:26:23;;;;;;;90.43;32.17;;;;;;;;;;5034204;28;20053;-84
2022/12/04 06:28:52;;;;;;;77.32;32.35;;;;;;;;;;5034303;28;20481;-83
2022/12/04 06:31:20;;;;;;;88.28;33.60;;;;;;;;;;5032857;28;20429;-84
2022/12/04 06:33:47;;;;;;;97.13;33.15;;;;;;;;;;5032965;28;20136;-83
2022/12/04 06:36:16;;;;;;;93.45;34.22;;;;;;;;;;5032952;28;20413;-84
2022/12/04 06:38:43;;;;;;;98.88;35.05;;;;;;;;;;5032917;28;20053;-84
2022/12/04 06:41:11;;;;;;;94.35;33.47;;;;;;;;;;5032647;28;20486;-83
2022/12/04 06:43:39;;;;;;;99.88;34.55;;;;;;;;;;5032902;28;20057;-84
2022/12/04 06:46:08;;;;;;;98.15;34.45;;;;;;;;;;5034094;28;20056;-84
2022/12/04 06:48:35;;;;;;;98.30;34.97;;;;;;;;;;5032938;28;20083;-83
2022/12/04 06:51:07;;;;;;;107.50;36.55;;;;;;;;;;5036082;28;20049;-83
2022/12/04 06:53:35;;;;;;;100.03;34.03;;;;;;;;;;5032276;28;20072;-83
2022/12/04 06:56:03;;;;;;;92.75;32.72;;;;;;;;;;5034178;28;20133;-83
2022/12/04 06:58:31;;;;;;;114.63;42.28;;;;;;;;;;5032878;28;20073;-83
2022/12/04 07:00:58;;;;;;;104.07;38.97;;;;;;;;;;5032605;28;20046;-84
2022/12/04 07:03:26;;;;;;;128.77;53.03;;;;;;;;;;5032002;28;20053;-83
2022/12/04 07:05:53;;;;;;;110.88;44.83;;;;;;;;;;5032454;28;20494;-83
2022/12/04 07:08:20;;;;;;;94.00;34.75;;;;;;;;;;5032327;28;20504;-83
2022/12/04 07:10:47;;;;;;;98.70;32.92;;;;;;;;;;5032850;28;20046;-83
2022/12/04 07:13:14;;;;;;;99.88;33.80;;;;;;;;;;5032020;28;20065;-84
2022/12/04 07:15:41;;;;;;;107.45;35.95;;;;;;;;;;5032035;28;20054;-83
2022/12/04 07:18:09;;;;;;;87.78;33.63;;;;;;;;;;5031510;28;20049;-83
2022/12/04 07:20:39;;;;;;;93.28;34.00;;;;;;;;;;5030741;28;20092;-84
2022/12/04 07:23:06;;;;;;;102.43;39.63;;;;;;;;;;5032173;28;20490;-83
2022/12/04 07:25:38;;;;;;;95.60;35.88;;;;;;;;;;5032157;28;20490;-83
2022/12/04 07:28:05;;;;;;;100.78;37.00;;;;;;;;;;5032424;28;20083;-83
2022/12/04 07:30:32;;;;;;;93.20;34.05;;;;;;;;;;5030914;28;20049;-83
2022/12/04 07:32:59;;;;;;;93.32;33.38;;;;;;;;;;5032456;28;20132;-84
2022/12/04 07:35:27;;;;;;;103.35;35.25;;;;;;;;;;5030959;28;20053;-83
2022/12/04 07:37:54;;;;;;;99.18;33.28;;;;;;;;;;5031074;28;20057;-83
2022/12/04 07:40:21;;;;;;;89.57;34.63;;;;;;;;;;5032128;28;20056;-84
2022/12/04 07:42:48;;;;;;;100.68;34.47;;;;;;;;;;5030942;28;20485;-83
2022/12/04 07:45:15;;;;;;;116.68;36.50;;;;;;;;;;5032152;28;20056;-83
2022/12/04 07:47:43;;;;;;;93.57;34.33;;;;;;;;;;5032151;28;20057;-82
2022/12/04 07:50:10;;;;;;;110.20;36.42;;;;;;;;;;5032045;28;20056;-83
2022/12/04 07:52:39;;;;;;;104.45;35.58;;;;;;;;;;5032012;28;20060;-84
2022/12/04 07:55:07;;;;;;;98.15;34.67;;;;;;;;;;5030943;28;20457;-83
2022/12/04 07:57:34;;;;;;;109.68;37.35;;;;;;;;;;5030682;28;20080;-83
2022/12/04 08:00:01;;;;;;;112.18;37.17;;;;;;;;;;5031685;28;20139;-84
2022/12/04 08:02:29;;;;;;;111.88;37.67;;;;;;;;;;5030683;28;20049;-84
2022/12/04 08:04:56;;;;;;;102.53;35.03;;;;;;;;;;5030771;28;20421;-84
2022/12/04 08:07:23;;;;;;;100.03;34.40;;;;;;;;;;5031903;28;20053;-83
2022/12/04 08:09:50;;;;;;;111.50;37.13;;;;;;;;;;5031823;28;20048;-84
2022/12/04 08:12:18;;;;;;;105.45;36.45;;;;;;;;;;5031722;28;20084;-84
2022/12/04 08:14:45;;;;;;;114.43;36.05;;;;;;;;;;5031942;28;20049;-84
2022/12/04 08:17:12;;;;;;;106.07;36.90;;;;;;;;;;5030624;28;20050;-84
2022/12/04 08:19:39;;;;;;;105.55;35.28;;;;;;;;;;5032434;28;20053;-84
2022/12/04 08:22:09;;;;;;;98.95;34.78;;;;;;;;;;5034471;28;20517;-87
2022/12/04 08:24:37;;;;;;;113.95;38.08;;;;;;;;;;5036179;28;20081;-88
2022/12/04 08:27:06;;;;;;;93.57;33.85;;;;;;;;;;5037163;28;20080;-88
2022/12/04 08:29:47;;;;;;;107.70;36.33;;;;;;;;;;4983819;28;20056;-88
2022/12/04 08:32:53;;;;;;;;;;;;;;;;;;;;;
2022/12/04 08:38:58;;;;;;;119.40;36.60;;;;;;;;;;5024455;22;20150;-89
2022/12/04 08:45:26;;;;;;;116.75;37.88;;;;;;;;;;4983833;22;20046;-89
2022/12/04 08:47:54;;;;;;;124.07;41.35;;;;;;;;;;5019293;28;20132;-89
2022/12/04 08:50:21;;;;;;;122.78;37.58;;;;;;;;;;5019176;28;20045;-88
2022/12/04 08:52:48;;;;;;;131.68;40.40;;;;;;;;;;5019140;28;20059;-88
2022/12/04 08:55:16;;;;;;;118.88;37.08;;;;;;;;;;5018964;28;20060;-88
2022/12/04 08:57:43;;;;;;;117.22;35.78;;;;;;;;;;5018796;28;20478;-87
2022/12/04 09:00:11;;;;;;;129.15;36.75;;;;;;;;;;5018853;28;20045;-88
2022/12/04 09:02:39;;;;;;;125.70;37.95;;;;;;;;;;5018604;28;20053;-87
2022/12/04 09:05:06;;;;;;;133.75;49.53;;;;;;;;;;5018136;28;20494;-86
2022/12/04 09:07:33;;;;;;;108.55;35.08;;;;;;;;;;5017655;28;20055;-85
2022/12/04 09:10:00;;;;;;;112.68;37.08;;;;;;;;;;5018079;28;20064;-86
2022/12/04 09:12:30;;;;;;;127.35;39.97;;;;;;;;;;5018151;28;20135;-85
2022/12/04 09:14:57;;;;;;;129.73;41.47;;;;;;;;;;5017369;28;20049;-84
2022/12/04 09:17:25;;;;;;;128.05;38.40;;;;;;;;;;5034672;28;20054;-86
2022/12/04 09:19:52;;;;;;;112.80;35.45;;;;;;;;;;5035097;28;20056;-85
2022/12/04 09:22:26;;;;;;;91.97;33.58;;;;;;;;;;5035045;28;20056;-85
2022/12/04 09:25:13;;;;;;;110.25;37.25;;;;;;;;;;5020414;28;20516;-85
2022/12/04 09:27:41;;;;;;;108.57;35.58;;;;;;;;;;5017003;28;20057;-85
2022/12/04 09:30:10;;;;;;;99.25;34.72;;;;;;;;;;5017202;28;20046;-86
2022/12/04 09:32:37;;;;;;;106.32;36.63;;;;;;;;;;5016866;28;20064;-84
2022/12/04 09:35:05;;;;;;;97.38;35.55;;;;;;;;;;5017067;28;20691;-84
2022/12/04 09:37:32;;;;;;;121.45;43.15;;;;;;;;;;5034742;28;20068;-84
2022/12/04 09:40:00;;;;;;;97.63;35.60;;;;;;;;;;5017186;28;20054;-84
2022/12/04 09:42:39;;;;;;;101.47;36.50;;;;;;;;;;5016570;28;20045;-84
2022/12/04 09:45:17;;;;;;;106.40;38.47;;;;;;;;;;5016410;28;20052;-83
2022/12/04 09:47:46;;;;;;;123.53;44.88;;;;;;;;;;5016405;28;20092;-83
2022/12/04 09:50:16;;;;;;;102.97;36.90;;;;;;;;;;5033922;28;20045;-83
2022/12/04 09:52:43;;;;;;;122.95;44.35;;;;;;;;;;5033826;28;20049;-83
2022/12/04 09:55:13;;;;;;;125.15;45.58;;;;;;;;;;5016670;28;20057;-83
2022/12/04 09:57:45;;;;;;;106.13;44.08;;;;;;;;;;5016689;28;20055;-84
2022/12/04 10:00:13;;;;;;;121.78;45.78;;;;;;;;;;5016273;28;20064;-84
2022/12/04 10:02:42;;;;;;;104.03;39.83;;;;;;;;;;5033661;28;20425;-82
2022/12/04 10:05:30;;;;;;;108.03;37.05;;;;;;;;;;5016384;28;20045;-83
2022/12/04 10:08:04;;;;;;;101.35;38.22;;;;;;;;;;4993782;28;20045;-82
2022/12/04 10:10:39;;;;;;;102.50;42.03;;;;;;;;;;5033538;28;20485;-83
2022/12/04 10:13:06;;;;;;;139.93;61.42;;;;;;;;;;5015491;28;20060;-82
2022/12/04 10:15:52;;;;;;;92.13;35.38;;;;;;;;;;5015971;28;20131;-83
2022/12/04 10:18:36;;;;;;;111.88;46.20;;;;;;;;;;5033752;28;20497;-82
2022/12/04 10:21:03;;;;;;;103.72;37.65;;;;;;;;;;5014426;28;20052;-82
2022/12/04 10:23:49;;;;;;;88.55;35.45;;;;;;;;;;5032690;28;20405;-82
2022/12/04 10:26:18;;;;;;;93.10;32.72;;;;;;;;;;5033170;28;20053;-82
2022/12/04 10:28:52;;;;;;;114.00;39.95;;;;;;;;;;5032896;28;20045;-82
2022/12/04 10:31:22;;;;;;;112.65;39.53;;;;;;;;;;5032950;28;20053;-82
2022/12/04 10:33:58;;;;;;;111.03;36.85;;;;;;;;;;5033370;28;20049;-82
2022/12/04 10:36:28;;;;;;;106.10;39.17;;;;;;;;;;5032899;28;20061;-83
2022/12/04 10:38:57;;;;;;;105.18;36.60;;;;;;;;;;5033064;28;20041;-82
2022/12/04 10:41:28;;;;;;;101.60;38.33;;;;;;;;;;5032499;28;20056;-82
2022/12/04 10:43:55;;;;;;;104.55;37.40;;;;;;;;;;5032139;28;20049;-82
2022/12/04 10:46:24;;;;;;;106.60;39.45;;;;;;;;;;5032632;28;20057;-82
2022/12/04 10:48:57;;;;;;;114.25;41.80;;;;;;;;;;5033085;28;20049;-82
2022/12/04 10:51:24;;;;;;;97.07;37.05;;;;;;;;;;5032307;28;20064;-82
2022/12/04 10:53:52;;;;;;;92.15;36.05;;;;;;;;;;5032928;28;20045;-81
2022/12/04 10:56:21;;;;;;;96.43;33.20;;;;;;;;;;5014978;28;20049;-81
2022/12/04 10:58:56;;;;;;;97.15;41.75;;;;;;;;;;5032987;28;20128;-82
2022/12/04 11:01:23;;;;;;;105.93;36.92;;;;;;;;;;5032499;28;20045;-82
2022/12/04 11:04:00;;;;;;;98.57;34.33;;;;;;;;;;5032948;28;20064;-82
2022/12/04 11:06:27;;;;;;;90.78;34.65;;;;;;;;;;5015019;28;20048;-82
2022/12/04 11:08:55;;;;;;;84.25;32.20;;;;;;;;;;5014987;28;20053;-82
2022/12/04 11:11:27;;;;;;;98.07;38.30;;;;;;;;;;5032506;28;20054;-82
2022/12/04 11:14:27;;;;;;;101.93;37.72;;;;;;;;;;5033480;28;20076;-82
2022/12/04 11:17:05;;;;;;;88.57;34.58;;;;;;;;;;4990213;28;20045;-82
2022/12/04 11:19:33;;;;;;;109.20;40.70;;;;;;;;;;5033148;28;20049;-82
2022/12/04 11:22:19;;;;;;;98.30;35.90;;;;;;;;;;5033166;28;20057;-83
2022/12/04 11:24:52;;;;;;;96.88;37.85;;;;;;;;;;5033365;28;20042;-82
2022/12/04 11:27:23;;;;;;;91.55;32.72;;;;;;;;;;5033468;28;20452;-83
2022/12/04 11:29:51;;;;;;;149.00;57.92;;;;;;;;;;5033027;28;20056;-83
2022/12/04 11:32:29;;;;;;;90.63;32.90;;;;;;;;;;5033095;28;20103;-84
2022/12/04 11:34:59;;;;;;;92.47;34.78;;;;;;;;;;5015555;28;20049;-84
2022/12/04 11:37:29;;;;;;;100.95;34.92;;;;;;;;;;5015996;28;20042;-83
2022/12/04 11:39:56;;;;;;;96.60;37.47;;;;;;;;;;5032844;28;20049;-83
2022/12/04 11:42:26;;;;;;;113.20;40.60;;;;;;;;;;5015162;28;20045;-83
2022/12/04 11:45:13;;;;;;;115.63;41.63;;;;;;;;;;5033008;28;20045;-84
2022/12/04 11:47:40;;;;;;;118.68;45.13;;;;;;;;;;5015206;28;20496;-83
2022/12/04 11:50:13;;;;;;;116.57;44.33;;;;;;;;;;5015031;28;20053;-83
2022/12/04 11:52:49;;;;;;;123.00;43.13;;;;;;;;;;5033122;28;20045;-84
2022/12/04 11:55:33;;;;;;;111.80;36.95;;;;;;;;;;5015219;28;20049;-84
2022/12/04 11:58:00;;;;;;;114.70;45.83;;;;;;;;;;5015871;28;20228;-85
2022/12/04 12:00:28;;;;;;;108.05;40.53;;;;;;;;;;5033407;28;20058;-86
2022/12/04 12:03:14;;;;;;;100.32;35.75;;;;;;;;;;5015631;28;20509;-86
2022/12/04 12:06:03;;;;;;;101.65;34.75;;;;;;;;;;5017393;28;20061;-86
2022/12/04 12:08:39;;;;;;;99.25;37.80;;;;;;;;;;5029246;28;20053;-85
2022/12/04 12:11:12;;;;;;;118.32;45.70;;;;;;;;;;5033615;28;20053;-86
2022/12/04 12:14:20;;;;;;;101.60;39.70;;;;;;;;;;5016042;28;20056;-86
2022/12/04 12:17:05;;;;;;;118.32;45.58;;;;;;;;;;4953371;28;20630;-86
2022/12/04 12:19:51;;;;;;;107.93;39.55;;;;;;;;;;4953490;28;20059;-86
2022/12/04 12:22:20;;;;;;;122.43;44.92;;;;;;;;;;5001187;28;20056;-87
2022/12/04 12:25:03;;;;;;;124.25;40.65;;;;;;;;;;5016021;28;20053;-87
2022/12/04 12:27:36;;;;;;;107.22;36.72;;;;;;;;;;5016389;28;20103;-87
2022/12/04 12:30:20;;;;;;;94.22;34.75;;;;;;;;;;5033647;28;20052;-87
2022/12/04 12:32:47;;;;;;;112.13;37.17;;;;;;;;;;5016589;28;20041;-88
2022/12/04 12:35:21;;;;;;;111.72;38.50;;;;;;;;;;5017188;28;20050;-87
2022/12/04 12:37:50;;;;;;;110.35;37.13;;;;;;;;;;5017318;28;20410;-89
2022/12/04 12:40:35;;;;;;;113.93;38.78;;;;;;;;;;5017086;28;20053;-88
2022/12/04 12:43:13;;;;;;;126.32;40.88;;;;;;;;;;5017400;28;20057;-86
2022/12/04 12:45:46;;;;;;;138.45;50.25;;;;;;;;;;5018081;28;20115;-89
2022/12/04 12:48:13;;;;;;;;;;;;;;;;;;5021112;28;20056;-89
2022/12/04 12:51:05;;;;;;;119.47;39.97;;;;;;;;;;5024457;28;19979;-91
2022/12/04 12:53:55;;;;;;;124.00;41.78;;;;;;;;;;5024139;28;20049;-91
2022/12/04 12:56:39;;;;;;;104.20;36.65;;;;;;;;;;5026531;28;20135;-92
2022/12/04 12:59:18;;;;;;;131.02;41.78;;;;;;;;;;5026292;28;20056;-93
2022/12/04 13:01:48;;;;;;;115.97;38.13;;;;;;;;;;5016079;28;20080;-91
2022/12/04 13:04:42;;;;;;;151.43;54.15;;;;;;;;;;5040230;28;20061;-92
2022/12/04 13:07:10;;;;;;;;;;;;;;;;;;5025470;28;20144;-93
2022/12/04 13:09:42;;;;;;;108.10;35.85;;;;;;;;;;5028240;28;19980;-93
2022/12/04 13:12:12;;;;;;;106.80;36.65;;;;;;;;;;5025442;28;20416;-93
2022/12/04 13:14:39;;;;;;;116.32;39.58;;;;;;;;;;5025237;28;20052;-94
2022/12/04 13:17:18;;;;;;;111.00;39.78;;;;;;;;;;5027244;28;20049;-93
2022/12/04 13:19:57;;;;;;;124.82;39.58;;;;;;;;;;5033565;28;20053;-93
2022/12/04 13:22:25;;;;;;;106.70;37.53;;;;;;;;;;5056152;28;20168;-94
2022/12/04 13:24:59;;;;;;;119.65;39.35;;;;;;;;;;5031050;28;20065;-94
2022/12/04 13:27:45;;;;;;;111.25;37.33;;;;;;;;;;5031119;28;20069;-93
2022/12/04 13:30:55;;;;;;;126.47;39.28;;;;;;;;;;5034420;28;20053;-94
2022/12/04 13:33:53;;;;;;;116.03;41.33;;;;;;;;;;5034868;28;20128;-95
2022/12/04 13:36:55;;;;;;;103.70;40.53;;;;;;;;;;5049092;28;20064;-94
2022/12/04 13:39:46;;;;;;;108.83;41.63;;;;;;;;;;5050403;28;20101;-95
2022/12/04 13:42:47;;;;;;;116.90;38.80;;;;;;;;;;5052359;28;20140;-95
2022/12/04 13:45:25;;;;;;;117.30;41.65;;;;;;;;;;5053344;28;20088;-96
2022/12/04 13:47:57;;;;;;;117.00;38.17;;;;;;;;;;5042717;28;20057;-94
2022/12/04 13:50:27;;;;;;;116.13;38.97;;;;;;;;;;5003658;28;20136;-79
2022/12/04 13:52:54;;;;;;;114.00;43.15;;;;;;;;;;5006143;28;20057;-79
2022/12/04 13:55:38;;;;;;;110.55;39.38;;;;;;;;;;5004308;28;20046;-80
2022/12/04 13:58:11;;;;;;;122.10;39.88;;;;;;;;;;4987325;28;20125;-79
2022/12/04 14:00:42;;;;;;;111.30;38.42;;;;;;;;;;5004236;28;20085;-79
2022/12/04 14:03:27;;;;;;;107.35;40.58;;;;;;;;;;4986942;28;20082;-79
2022/12/04 14:05:55;;;;;;;114.60;39.28;;;;;;;;;;5004230;28;20088;-78
2022/12/04 14:08:24;;;;;;;109.00;37.50;;;;;;;;;;4988150;28;20054;-79
2022/12/04 14:11:00;;;;;;;104.55;37.45;;;;;;;;;;4988639;28;20544;-80
2022/12/04 14:13:29;;;;;;;109.53;38.03;;;;;;;;;;4989346;28;20046;-79
2022/12/04 14:16:04;;;;;;;122.15;39.60;;;;;;;;;;4968570;28;20089;-79
2022/12/04 14:18:31;;;;;;;121.22;39.78;;;;;;;;;;4986624;28;20047;-79
2022/12/04 14:21:04;;;;;;;124.35;39.60;;;;;;;;;;4985962;28;20082;-80
2022/12/04 14:23:41;;;;;;;120.50;40.28;;;;;;;;;;4967584;28;20134;-79
2022/12/04 14:26:21;;;;;;;131.70;40.45;;;;;;;;;;4967050;28;20077;-79
2022/12/04 14:28:48;;;;;;;130.77;42.53;;;;;;;;;;4984060;28;20073;-79
2022/12/04 14:31:25;;;;;;;139.13;42.67;;;;;;;;;;4965936;28;20055;-79
2022/12/04 14:34:01;;;;;;;158.40;42.92;;;;;;;;;;4983927;28;20051;-79
2022/12/04 14:36:30;;;;;;;135.38;39.80;;;;;;;;;;4988840;28;20106;-79
2022/12/04 14:39:12;;;;;;;141.25;42.58;;;;;;;;;;4989081;28;20075;-79
2022/12/04 14:41:40;;;;;;;143.00;43.35;;;;;;;;;;4969824;28;20051;-80
2022/12/04 14:44:18;;;;;;;160.15;45.97;;;;;;;;;;4968506;28;20057;-79
2022/12/04 14:46:49;;;;;;;131.48;41.45;;;;;;;;;;4985819;28;20043;-79
2022/12/04 14:49:21;;;;;;;172.75;46.83;;;;;;;;;;4984883;28;20046;-79
2022/12/04 14:51:48;;;;;;;145.52;43.05;;;;;;;;;;4984890;28;20106;-79
2022/12/04 14:54:30;;;;;;;137.63;42.13;;;;;;;;;;4967421;28;20113;-80
2022/12/04 14:57:00;;;;;;;166.43;48.20;;;;;;;;;;4967487;28;20133;-80
2022/12/04 14:59:47;;;;;;;167.90;49.67;;;;;;;;;;4967559;28;20051;-80